createdAt,value
2018-10-11T00:00:29.227Z,61.98
2018-10-11T00:02:57.210Z,51.88
2018-10-11T00:05:24.854Z,46.15
2018-10-11T00:07:53.688Z,46.33
2018-10-11T00:10:26.189Z,42.73
2018-10-11T00:12:54.851Z,39.78
2018-10-11T00:15:22.178Z,42.25
2018-10-11T00:17:53.455Z,36.95
2018-10-11T00:20:21.111Z,30.12
2018-10-11T00:22:54.210Z,27.27
2018-10-11T00:25:21.591Z,27.67
2018-10-11T00:27:49.574Z,26.50
2018-10-11T00:30:17.529Z,26.48
2018-10-11T00:32:46.319Z,27.13
2018-10-11T00:35:13.694Z,25.57
2018-10-11T00:37:42.209Z,26.15
2018-10-11T00:40:11.338Z,25.90
2018-10-11T00:42:39.351Z,26.85
2018-10-11T00:45:07.031Z,26.65
2018-10-11T00:47:34.377Z,26.77
2018-10-11T00:50:02.518Z,26.00
2018-10-11T00:52:30.137Z,23.30
2018-10-11T00:54:58.687Z,25.17
2018-10-11T00:57:30.686Z,24.23
2018-10-11T00:59:58.104Z,24.87
2018-10-11T01:02:26.408Z,26.25
2018-10-11T01:04:54.055Z,22.67
2018-10-11T01:07:21.546Z,22.90
2018-10-11T01:09:49.047Z,22.25
2018-10-11T01:12:21.345Z,22.13
2018-10-11T01:14:48.788Z,22.75
2018-10-11T01:17:16.236Z,21.77
2018-10-11T01:22:12.271Z,21.12
2018-10-11T01:24:40.001Z,23.75
2018-10-11T01:27:11.719Z,20.95
2018-10-11T01:29:43.596Z,21.73
2018-10-11T01:32:13.109Z,22.00
2018-10-11T01:34:40.548Z,20.00
2018-10-11T01:37:08.598Z,22.15
2018-10-11T01:42:03.180Z,20.27
2018-10-11T01:44:30.577Z,19.45
2018-10-11T01:46:58.075Z,21.27
2018-10-11T01:49:30.806Z,20.17
2018-10-11T01:51:58.275Z,19.62
2018-10-11T01:54:25.652Z,21.87
2018-10-11T01:56:57.455Z,21.37
2018-10-11T01:59:30.545Z,20.30
2018-10-11T02:02:02.372Z,20.00
2018-10-11T02:04:29.767Z,22.02
2018-10-11T02:06:57.157Z,21.40
2018-10-11T02:09:25.023Z,22.25
2018-10-11T02:11:52.347Z,20.75
2018-10-11T02:14:19.724Z,21.33
2018-10-11T02:16:47.045Z,19.20
2018-10-11T02:19:14.453Z,20.50
2018-10-11T02:21:41.934Z,20.95
2018-10-11T02:24:10.658Z,19.35
2018-10-11T02:26:39.196Z,20.65
2018-10-11T02:29:06.881Z,19.37
2018-10-11T02:31:34.263Z,21.70
2018-10-11T02:34:02.124Z,19.10
2018-10-11T02:36:30.190Z,20.35
2018-10-11T02:39:00.350Z,20.15
2018-10-11T02:41:27.672Z,22.17
2018-10-11T02:43:56.408Z,19.55
2018-10-11T02:46:28.451Z,20.90
2018-10-11T02:48:56.471Z,22.45
2018-10-11T02:51:23.937Z,19.70
2018-10-11T02:53:51.443Z,20.52
2018-10-11T02:56:20.207Z,20.77
2018-10-11T02:58:57.175Z,19.12
2018-10-11T03:01:25.445Z,20.70
2018-10-11T03:03:55.167Z,21.50
2018-10-11T03:06:26.546Z,21.90
2018-10-11T03:08:54.594Z,20.75
2018-10-11T03:11:22.175Z,20.08
2018-10-11T03:13:49.807Z,19.75
2018-10-11T03:16:18.174Z,22.52
2018-10-11T03:18:46.459Z,22.95
2018-10-11T03:21:15.153Z,21.33
2018-10-11T03:23:44.106Z,21.50
2018-10-11T03:26:12.518Z,21.68
2018-10-11T03:28:41.073Z,21.68
2018-10-11T03:31:08.527Z,23.32
2018-10-11T03:36:08.307Z,20.95
2018-10-11T03:38:35.730Z,22.93
2018-10-11T03:43:31.865Z,22.15
2018-10-11T03:45:59.575Z,22.10
2018-10-11T03:48:29.346Z,22.73
2018-10-11T03:51:00.996Z,23.00
2018-10-11T03:53:28.721Z,22.27
2018-10-11T03:55:56.438Z,23.15
2018-10-11T03:58:28.194Z,23.32
2018-10-11T04:01:00.907Z,22.62
2018-10-11T04:03:29.755Z,23.05
2018-10-11T04:05:57.445Z,24.32
2018-10-11T04:08:25.375Z,23.15
2018-10-11T04:10:53.189Z,23.40
2018-10-11T04:13:21.658Z,25.77
2018-10-11T04:15:49.157Z,24.18
2018-10-11T04:18:21.522Z,26.05
2018-10-11T04:20:49.447Z,23.83
2018-10-11T04:23:23.341Z,23.77
2018-10-11T04:25:51.195Z,23.22
2018-10-11T04:28:18.622Z,24.10
2018-10-11T04:30:46.458Z,24.20
2018-10-11T04:33:14.501Z,21.70
2018-10-11T04:35:46.867Z,24.05
2018-10-11T04:38:14.263Z,22.17
2018-10-11T04:40:42.320Z,22.50
2018-10-11T04:43:11.818Z,23.70
2018-10-11T04:45:40.085Z,24.45
2018-10-11T04:48:12.706Z,21.90
2018-10-11T04:50:42.146Z,22.75
2018-10-11T04:53:09.863Z,25.05
2018-10-11T04:55:41.970Z,23.75
2018-10-11T04:58:09.415Z,24.65
2018-10-11T05:00:37.330Z,24.37
2018-10-11T05:03:04.708Z,25.52
2018-10-11T05:05:32.015Z,25.00
2018-10-11T05:07:59.436Z,27.85
2018-10-11T05:10:26.998Z,28.00
2018-10-11T05:12:54.722Z,26.45
2018-10-11T05:15:22.191Z,26.95
2018-10-11T05:17:50.048Z,27.20
2018-10-11T05:20:17.357Z,26.50
2018-10-11T05:22:44.674Z,28.27
2018-10-11T05:25:12.037Z,25.80
2018-10-11T05:27:39.399Z,25.45
2018-10-11T05:30:06.819Z,26.73
2018-10-11T05:32:34.711Z,26.07
2018-10-11T05:35:02.057Z,25.88
2018-10-11T05:37:29.582Z,25.82
2018-10-11T05:39:56.917Z,25.37
2018-10-11T05:42:24.287Z,25.92
2018-10-11T05:44:51.829Z,24.63
2018-10-11T05:47:19.184Z,27.22
2018-10-11T05:49:46.609Z,25.62
2018-10-11T05:52:14.049Z,26.90
2018-10-11T05:54:42.030Z,25.95
2018-10-11T05:57:09.494Z,26.33
2018-10-11T05:59:37.441Z,25.50
2018-10-11T06:02:04.823Z,27.50
2018-10-11T06:04:32.153Z,27.25
2018-10-11T06:06:59.515Z,27.37
2018-10-11T06:09:26.915Z,25.68
2018-10-11T06:11:55.377Z,26.05
2018-10-11T06:14:23.627Z,26.62
2018-10-11T06:16:50.966Z,28.92
2018-10-11T06:19:18.316Z,26.70
2018-10-11T06:21:45.654Z,27.90
2018-10-11T06:24:12.954Z,27.45
2018-10-11T06:26:40.509Z,26.50
2018-10-11T06:29:07.910Z,25.17
2018-10-11T06:31:35.287Z,26.25
2018-10-11T06:34:02.626Z,27.55
2018-10-11T06:36:30.109Z,25.12
2018-10-11T06:38:58.582Z,24.43
2018-10-11T06:41:25.953Z,26.52
2018-10-11T06:43:53.310Z,25.15
2018-10-11T06:46:20.668Z,26.37
2018-10-11T06:48:48.019Z,25.82
2018-10-11T06:51:15.398Z,25.05
2018-10-11T06:53:42.744Z,25.15
2018-10-11T06:56:10.059Z,23.92
2018-10-11T06:58:37.443Z,23.30
2018-10-11T07:01:04.745Z,25.37
2018-10-11T07:03:32.034Z,24.60
2018-10-11T07:05:59.636Z,25.88
2018-10-11T07:08:26.918Z,24.23
2018-10-11T07:10:54.246Z,25.70
2018-10-11T07:13:21.557Z,23.73
2018-10-11T07:15:48.875Z,23.27
2018-10-11T07:18:16.261Z,23.77
2018-10-11T07:20:43.638Z,26.00
2018-10-11T07:23:10.946Z,23.95
2018-10-11T07:25:38.248Z,23.40
2018-10-11T07:28:05.603Z,25.17
2018-10-11T07:30:32.859Z,23.25
2018-10-11T07:33:00.262Z,24.15
2018-10-11T07:35:27.709Z,23.30
2018-10-11T07:37:54.833Z,24.50
2018-10-11T07:40:22.147Z,25.92
2018-10-11T07:42:49.437Z,23.35
2018-10-11T07:45:16.712Z,23.77
2018-10-11T07:47:44.012Z,22.80
2018-10-11T07:50:11.335Z,21.07
2018-10-11T07:52:38.619Z,22.35
2018-10-11T07:55:05.951Z,23.07
2018-10-11T07:57:33.287Z,21.25
2018-10-11T08:00:00.591Z,22.85
2018-10-11T08:02:27.968Z,21.65
2018-10-11T08:04:55.278Z,22.60
2018-10-11T08:07:22.725Z,22.55
2018-10-11T08:09:49.914Z,21.75
2018-10-11T08:12:17.200Z,22.42
2018-10-11T08:14:44.493Z,22.02
2018-10-11T08:17:12.157Z,20.32
2018-10-11T08:19:39.207Z,21.95
2018-10-11T08:22:06.667Z,21.60
2018-10-11T08:24:33.971Z,22.40
2018-10-11T08:27:01.263Z,21.30
2018-10-11T08:29:28.556Z,20.33
2018-10-11T08:31:55.854Z,19.73
2018-10-11T08:34:23.148Z,20.37
2018-10-11T08:36:50.430Z,20.30
2018-10-11T08:39:17.807Z,21.50
2018-10-11T08:41:45.143Z,22.90
2018-10-11T08:44:13.167Z,19.43
2018-10-11T08:46:40.477Z,19.80
2018-10-11T08:49:08.257Z,20.47
2018-10-11T08:51:35.544Z,20.03
2018-10-11T08:54:08.211Z,19.57
2018-10-11T08:56:35.558Z,18.13
2018-10-11T08:59:02.957Z,17.50
2018-10-11T09:01:30.188Z,17.37
2018-10-11T09:03:57.677Z,17.27
2018-10-11T09:06:24.830Z,16.87
2018-10-11T09:08:52.265Z,16.10
2018-10-11T09:11:19.716Z,15.30
2018-10-11T09:13:47.016Z,15.50
2018-10-11T09:16:14.304Z,14.30
2018-10-11T09:18:41.606Z,15.70
2018-10-11T09:21:09.079Z,15.03
2018-10-11T09:23:36.419Z,14.33
2018-10-11T09:26:03.681Z,13.20
2018-10-11T09:28:30.966Z,14.17
2018-10-11T09:30:58.228Z,14.00
2018-10-11T09:33:25.520Z,15.03
2018-10-11T09:35:52.794Z,13.87
2018-10-11T09:38:20.206Z,14.70
2018-10-11T09:40:47.627Z,13.93
2018-10-11T09:43:14.960Z,15.40
2018-10-11T09:45:42.246Z,13.40
2018-10-11T09:48:09.550Z,13.57
2018-10-11T09:50:36.894Z,14.00
2018-10-11T09:53:04.459Z,13.53
2018-10-11T09:55:31.756Z,15.30
2018-10-11T09:57:59.033Z,14.77
2018-10-11T10:00:31.803Z,14.50
2018-10-11T10:02:59.093Z,13.43
2018-10-11T10:05:26.354Z,13.30
2018-10-11T10:07:53.678Z,13.60
2018-10-11T10:10:20.963Z,12.30
2018-10-11T10:12:48.843Z,12.90
2018-10-11T10:15:16.188Z,12.70
2018-10-11T10:17:43.489Z,13.57
2018-10-11T10:20:10.930Z,12.57
2018-10-11T10:22:38.267Z,12.70
2018-10-11T10:25:05.590Z,12.97
2018-10-11T10:27:32.970Z,13.57
2018-10-11T10:30:00.277Z,13.37
2018-10-11T10:32:27.540Z,12.80
2018-10-11T10:34:54.795Z,12.60
2018-10-11T10:37:22.072Z,12.87
2018-10-11T10:39:49.488Z,13.40
2018-10-11T10:42:17.128Z,13.17
2018-10-11T10:44:44.407Z,14.43
2018-10-11T10:47:11.707Z,12.70
2018-10-11T10:49:39.002Z,12.00
2018-10-11T10:52:06.327Z,13.23
2018-10-11T10:54:34.827Z,13.07
2018-10-11T10:57:02.569Z,12.10
2018-10-11T10:59:29.939Z,12.30
2018-10-11T11:01:57.416Z,12.60
2018-10-11T11:04:25.080Z,12.10
2018-10-11T11:06:52.471Z,12.57
2018-10-11T11:09:19.786Z,12.60
2018-10-11T11:11:47.034Z,13.07
2018-10-11T11:14:15.401Z,11.83
2018-10-11T11:16:43.182Z,11.93
2018-10-11T11:19:10.947Z,12.53
2018-10-11T11:21:38.359Z,11.80
2018-10-11T11:24:05.682Z,11.77
2018-10-11T11:26:32.983Z,10.90
2018-10-11T11:29:00.675Z,10.47
2018-10-11T11:31:28.281Z,10.40
2018-10-11T11:33:55.558Z,9.63
2018-10-11T11:36:22.788Z,9.60
2018-10-11T11:38:50.127Z,8.70
2018-10-11T11:41:17.855Z,8.90
2018-10-11T11:43:45.408Z,8.50
2018-10-11T11:46:12.954Z,8.07
2018-10-11T11:48:40.234Z,8.97
2018-10-11T11:51:07.965Z,8.33
2018-10-11T11:53:35.238Z,9.20
2018-10-11T11:56:02.505Z,9.10
2018-10-11T11:58:29.799Z,9.03
2018-10-11T12:00:57.099Z,8.90
2018-10-11T12:03:24.370Z,7.90
2018-10-11T12:05:51.695Z,8.17
2018-10-11T12:08:18.966Z,7.67
2018-10-11T12:10:46.302Z,7.73
2018-10-11T12:13:13.528Z,7.30
2018-10-11T12:15:42.102Z,7.87
2018-10-11T12:18:09.807Z,7.00
2018-10-11T12:20:38.386Z,7.33
2018-10-11T12:23:06.857Z,8.80
2018-10-11T12:25:34.551Z,7.33
2018-10-11T12:28:01.892Z,6.83
2018-10-11T12:30:29.318Z,7.27
2018-10-11T12:32:56.600Z,7.20
2018-10-11T12:35:24.859Z,6.80
2018-10-11T12:37:52.167Z,5.97
2018-10-11T12:40:19.790Z,7.20
2018-10-11T12:42:47.086Z,6.40
2018-10-11T12:45:15.113Z,7.40
2018-10-11T12:47:42.404Z,7.13
2018-10-11T12:50:10.810Z,6.20
2018-10-11T12:52:38.009Z,6.57
2018-10-11T12:55:05.651Z,6.80
2018-10-11T12:57:33.024Z,6.73
2018-10-11T13:00:00.241Z,7.20
2018-10-11T13:02:27.715Z,7.30
2018-10-11T13:04:54.994Z,5.70
2018-10-11T13:07:22.292Z,6.80
2018-10-11T13:09:49.679Z,6.60
2018-10-11T13:12:17.006Z,7.13
2018-10-11T13:14:44.260Z,6.53
2018-10-11T13:17:11.565Z,6.33
2018-10-11T13:19:38.840Z,6.70
2018-10-11T13:22:06.163Z,6.40
2018-10-11T13:24:36.681Z,6.63
2018-10-11T13:27:00.974Z,6.20
2018-10-11T13:29:28.520Z,6.50
2018-10-11T13:31:56.674Z,6.43
2018-10-11T13:34:23.999Z,8.33
2018-10-11T13:36:51.320Z,8.63
2018-10-11T13:39:18.622Z,8.70
2018-10-11T13:41:46.059Z,7.97
2018-10-11T13:44:13.206Z,9.10
2018-10-11T13:46:40.511Z,8.73
2018-10-11T13:49:07.791Z,7.93
2018-10-11T13:51:35.193Z,7.90
2018-10-11T13:54:02.519Z,8.17
2018-10-11T13:56:29.933Z,8.60
2018-10-11T13:58:58.094Z,8.37
2018-10-11T14:01:25.374Z,9.43
2018-10-11T14:03:52.698Z,9.47
2018-10-11T14:06:20.203Z,8.90
2018-10-11T14:08:47.525Z,8.03
2018-10-11T14:11:15.063Z,9.50
2018-10-11T14:13:47.325Z,8.90
2018-10-11T14:16:14.672Z,8.33
2018-10-11T14:18:47.507Z,8.43
2018-10-11T14:21:14.942Z,9.87
2018-10-11T14:23:42.303Z,8.87
2018-10-11T14:26:09.590Z,8.90
2018-10-11T14:28:36.926Z,9.40
2018-10-11T14:31:04.254Z,9.13
2018-10-11T14:33:31.597Z,10.00
2018-10-11T14:35:58.878Z,9.53
2018-10-11T14:38:26.426Z,10.57
2018-10-11T14:40:53.729Z,9.97
2018-10-11T14:43:21.060Z,9.33
2018-10-11T14:45:48.359Z,8.53
2018-10-11T14:48:15.708Z,8.33
2018-10-11T14:50:43.363Z,9.30
2018-10-11T14:53:10.635Z,8.90
2018-10-11T14:55:37.984Z,9.17
2018-10-11T14:58:06.196Z,8.90
2018-10-11T15:00:33.496Z,8.87
2018-10-11T15:03:00.981Z,9.87
2018-10-11T15:05:28.293Z,9.27
2018-10-11T15:07:55.691Z,8.00
2018-10-11T15:10:23.042Z,8.53
2018-10-11T15:12:50.394Z,8.60
2018-10-11T15:15:17.732Z,7.90
2018-10-11T15:17:45.040Z,8.00
2018-10-11T15:20:12.355Z,7.30
2018-10-11T15:22:39.698Z,8.10
2018-10-11T15:25:07.176Z,7.40
2018-10-11T15:27:34.602Z,8.60
2018-10-11T15:30:01.953Z,8.37
2018-10-11T15:32:29.246Z,8.30
2018-10-11T15:34:56.581Z,9.00
2018-10-11T15:37:23.918Z,8.03
2018-10-11T15:39:51.272Z,7.70
2018-10-11T15:42:18.657Z,9.33
2018-10-11T15:44:45.986Z,7.80
2018-10-11T15:47:13.328Z,9.07
2018-10-11T15:49:40.708Z,8.80
2018-10-11T15:52:08.097Z,7.80
2018-10-11T15:54:35.287Z,7.70
2018-10-11T15:57:02.620Z,8.40
2018-10-11T15:59:29.940Z,8.83
2018-10-11T16:01:57.855Z,7.50
2018-10-11T16:04:25.133Z,8.10
2018-10-11T16:06:52.440Z,8.43
2018-10-11T16:09:19.822Z,8.70
2018-10-11T16:11:47.185Z,7.47
2018-10-11T16:14:14.510Z,8.43
2018-10-11T16:16:41.851Z,8.20
2018-10-11T16:19:09.211Z,8.07
2018-10-11T16:21:36.545Z,7.83
2018-10-11T16:24:03.866Z,7.33
2018-10-11T16:26:31.186Z,8.27
2018-10-11T16:28:58.865Z,7.03
2018-10-11T16:31:26.207Z,7.50
2018-10-11T16:33:53.565Z,7.33
2018-10-11T16:36:20.850Z,8.90
2018-10-11T16:38:48.239Z,8.20
2018-10-11T16:41:15.590Z,8.33
2018-10-11T16:43:42.923Z,8.00
2018-10-11T16:46:10.282Z,7.83
2018-10-11T16:48:37.673Z,7.50
2018-10-11T16:51:05.100Z,8.40
2018-10-11T16:53:33.141Z,8.17
2018-10-11T16:56:00.396Z,8.90
2018-10-11T16:58:27.774Z,8.80
2018-10-11T17:00:55.058Z,8.10
2018-10-11T17:03:23.148Z,8.70
2018-10-11T17:05:50.507Z,8.70
2018-10-11T17:08:18.077Z,8.90
2018-10-11T17:10:46.279Z,9.10
2018-10-11T17:13:13.676Z,10.20
2018-10-11T17:15:41.133Z,8.60
2018-10-11T17:18:09.623Z,10.07
2018-10-11T17:20:37.082Z,9.53
2018-10-11T17:23:04.511Z,9.30
2018-10-11T17:25:32.904Z,10.20
2018-10-11T17:28:02.165Z,10.23
2018-10-11T17:30:29.563Z,10.87
2018-10-11T17:32:56.934Z,9.80
2018-10-11T17:35:25.455Z,10.10
2018-10-11T17:37:53.072Z,9.73
2018-10-11T17:40:21.741Z,9.67
2018-10-11T17:42:50.177Z,10.35
2018-10-11T17:45:19.719Z,10.73
2018-10-11T17:47:47.130Z,10.53
2018-10-11T17:50:14.550Z,10.13
2018-10-11T17:52:41.975Z,10.13
2018-10-11T17:55:09.423Z,10.90
2018-10-11T17:57:36.828Z,10.13
2018-10-11T18:00:05.053Z,10.68
2018-10-11T18:02:36.934Z,10.27
2018-10-11T18:05:04.332Z,10.95
2018-10-11T18:07:31.882Z,11.48
2018-10-11T18:09:59.356Z,9.93
2018-10-11T18:12:27.452Z,11.90
2018-10-11T18:14:55.880Z,10.27
2018-10-11T18:17:24.251Z,11.28
2018-10-11T18:19:52.165Z,10.32
2018-10-11T18:22:20.055Z,9.68
2018-10-11T18:24:47.418Z,9.90
2018-10-11T18:27:19.252Z,10.53
2018-10-11T18:32:20.609Z,10.30
2018-10-11T18:34:48.111Z,11.30
2018-10-11T18:37:15.840Z,10.70
2018-10-11T18:39:47.301Z,11.57
2018-10-11T18:42:14.801Z,10.10
2018-10-11T18:44:42.702Z,11.83
2018-10-11T18:47:14.378Z,10.90
2018-10-11T18:49:41.870Z,10.93
2018-10-11T18:52:09.280Z,11.20
2018-10-11T18:57:04.692Z,10.63
2018-10-11T18:59:32.939Z,11.23
2018-10-11T19:02:00.789Z,11.57
2018-10-11T19:04:28.231Z,11.53
2018-10-11T19:06:59.592Z,11.83
2018-10-11T19:09:31.401Z,11.15
2018-10-11T19:11:58.865Z,12.07
2018-10-11T19:14:26.409Z,11.15
2018-10-11T19:16:53.905Z,11.37
2018-10-11T19:19:23.041Z,11.22
2018-10-11T19:21:50.519Z,10.45
2018-10-11T19:24:17.896Z,11.37
2018-10-11T19:26:46.019Z,11.03
2018-10-11T19:29:13.377Z,10.83
2018-10-11T19:31:40.864Z,10.47
2018-10-11T19:34:12.952Z,10.93
2018-10-11T19:36:44.819Z,11.05
2018-10-11T19:39:13.769Z,10.95
2018-10-11T19:41:41.312Z,10.72
2018-10-11T19:44:15.998Z,9.73
2018-10-11T19:46:43.545Z,11.28
2018-10-11T19:49:11.075Z,10.05
2018-10-11T19:51:39.638Z,11.05
2018-10-11T19:54:07.136Z,9.90
2018-10-11T19:56:34.543Z,11.75
2018-10-11T19:59:02.198Z,10.28
2018-10-11T20:01:29.784Z,11.55
2018-10-11T20:03:57.728Z,10.25
2018-10-11T20:06:25.972Z,10.28
2018-10-11T20:08:53.446Z,11.15
2018-10-11T20:11:21.300Z,11.25
2018-10-11T20:13:48.790Z,10.45
2018-10-11T20:16:16.251Z,11.30
2018-10-11T20:18:44.210Z,10.95
2018-10-11T20:21:12.177Z,11.60
2018-10-11T20:23:39.534Z,11.78
2018-10-11T20:26:07.548Z,9.55
2018-10-11T20:28:34.913Z,10.40
2018-10-11T20:31:02.444Z,10.00
2018-10-11T20:33:29.900Z,11.88
2018-10-11T20:35:57.443Z,10.53
2018-10-11T20:38:24.910Z,11.90
2018-10-11T20:40:52.466Z,9.98
2018-10-11T20:43:20.069Z,10.05
2018-10-11T20:45:47.449Z,10.85
2018-10-11T20:48:16.235Z,10.28
2018-10-11T20:50:47.444Z,9.95
2018-10-11T20:53:14.812Z,12.00
2018-10-11T20:55:43.031Z,10.08
2018-10-11T20:58:11.193Z,10.95
2018-10-11T21:00:39.235Z,10.20
2018-10-11T21:03:11.528Z,9.90
2018-10-11T21:05:42.386Z,10.55
2018-10-11T21:08:09.812Z,10.75
2018-10-11T21:10:37.226Z,9.88
2018-10-11T21:13:04.903Z,11.53
2018-10-11T21:15:34.147Z,10.63
2018-10-11T21:18:02.149Z,11.10
2018-10-11T21:20:30.105Z,11.18
2018-10-11T21:22:58.146Z,12.53
2018-10-11T21:25:25.658Z,10.48
2018-10-11T21:27:53.322Z,11.05
2018-10-11T21:30:20.919Z,11.40
2018-10-11T21:32:55.643Z,11.25
2018-10-11T21:35:24.094Z,12.03
2018-10-11T21:37:52.163Z,11.43
2018-10-11T21:40:23.985Z,11.75
2018-10-11T21:42:51.500Z,10.93
2018-10-11T21:45:19.359Z,11.35
2018-10-11T21:47:46.747Z,10.55
2018-10-11T21:50:14.711Z,11.08
2018-10-11T21:52:42.193Z,12.28
2018-10-11T21:55:09.599Z,11.68
2018-10-11T21:57:37.697Z,13.05
2018-10-11T22:00:07.406Z,11.80
2018-10-11T22:02:35.502Z,12.53
2018-10-11T22:05:07.363Z,12.20
2018-10-11T22:07:34.900Z,12.40
2018-10-11T22:10:02.281Z,11.63
2018-10-11T22:12:29.755Z,11.65
2018-10-11T22:14:59.220Z,11.80
2018-10-11T22:17:26.609Z,12.78
2018-10-11T22:19:58.514Z,12.33
2018-10-11T22:22:26.092Z,11.70
2018-10-11T22:24:54.605Z,11.80
2018-10-11T22:27:25.816Z,12.20
2018-10-11T22:29:53.304Z,12.60
2018-10-11T22:32:21.516Z,10.60
2018-10-11T22:34:54.065Z,11.97
2018-10-11T22:37:21.612Z,12.70
2018-10-11T22:39:50.218Z,12.35
2018-10-11T22:42:19.419Z,10.98
2018-10-11T22:44:48.121Z,13.88
2018-10-11T22:47:15.545Z,13.85
2018-10-11T22:49:43.830Z,12.88
2018-10-11T22:52:11.167Z,13.22
2018-10-11T22:54:38.568Z,11.78
2018-10-11T22:57:06.192Z,13.00
2018-10-11T22:59:34.126Z,12.70
2018-10-11T23:02:01.559Z,13.48
2018-10-11T23:04:33.320Z,12.40
2018-10-11T23:07:05.959Z,12.90
2018-10-11T23:09:33.352Z,12.75
2018-10-11T23:12:00.750Z,14.85
2018-10-11T23:14:28.522Z,13.25
2018-10-11T23:16:59.727Z,11.80
2018-10-11T23:19:33.009Z,12.30
2018-10-11T23:22:05.109Z,12.50
2018-10-11T23:24:32.939Z,13.65
2018-10-11T23:27:02.061Z,13.10
2018-10-11T23:29:29.457Z,12.25
2018-10-11T23:32:01.217Z,12.43
2018-10-11T23:34:30.219Z,12.78
2018-10-11T23:36:57.580Z,12.28
2018-10-11T23:39:25.037Z,12.18
2018-10-11T23:42:03.599Z,11.60
2018-10-11T23:44:30.994Z,10.93
2018-10-11T23:46:59.384Z,11.90
2018-10-11T23:49:27.158Z,11.78
2018-10-11T23:51:54.576Z,11.38
2018-10-11T23:54:28.013Z,12.28
2018-10-11T23:56:58.662Z,10.98
2018-10-11T23:59:26.402Z,10.20
